sensor_id;sensor_type;location;lat;lon;timestamp;pressure;altitude;pressure_sealevel;temperature;humidity
48027;BME280;50714;49.208;5.364;2022-11-04T00:06:13;98488.91;;;11.06;84.72
48027;BME280;50714;49.208;5.364;2022-11-04T00:16:13;98486.69;;;11.14;84.32
48027;BME280;50714;49.208;5.364;2022-11-04T00:26:33;98476.75;;;11.26;84.74
48027;BME280;50714;49.208;5.364;2022-11-04T00:36:52;98462.88;;;11.35;84.53
48027;BME280;50714;49.208;5.364;2022-11-04T00:46:52;98469.47;;;11.39;84.51
48027;BME280;50714;49.208;5.364;2022-11-04T00:56:52;98454.66;;;11.41;84.05
48027;BME280;50714;49.208;5.364;2022-11-04T01:06:53;98453.47;;;11.37;84.00
48027;BME280;50714;49.208;5.364;2022-11-04T01:16:54;98443.03;;;11.41;83.75
48027;BME280;50714;49.208;5.364;2022-11-04T01:26:54;98426.13;;;11.45;83.99
48027;BME280;50714;49.208;5.364;2022-11-04T01:36:55;98419.44;;;11.48;83.76
48027;BME280;50714;49.208;5.364;2022-11-04T01:46:55;98396.16;;;11.47;83.32
48027;BME280;50714;49.208;5.364;2022-11-04T01:56:56;98386.88;;;11.43;83.64
48027;BME280;50714;49.208;5.364;2022-11-04T02:06:59;98352.00;;;11.41;83.03
48027;BME280;50714;49.208;5.364;2022-11-04T02:17:28;98365.31;;;11.31;83.46
48027;BME280;50714;49.208;5.364;2022-11-04T02:48:26;98340.25;;;11.36;82.93
48027;BME280;50714;49.208;5.364;2022-11-04T02:58:42;98349.19;;;11.36;82.71
48027;BME280;50714;49.208;5.364;2022-11-04T03:08:47;98337.56;;;11.36;83.28
48027;BME280;50714;49.208;5.364;2022-11-04T03:29:31;98317.97;;;11.28;84.55
48027;BME280;50714;49.208;5.364;2022-11-04T03:39:33;98296.84;;;11.14;83.77
48027;BME280;50714;49.208;5.364;2022-11-04T03:49:33;98303.66;;;11.05;84.11
48027;BME280;50714;49.208;5.364;2022-11-04T04:20:29;98296.47;;;11.10;84.54
48027;BME280;50714;49.208;5.364;2022-11-04T04:30:32;98283.69;;;11.17;84.97
48027;BME280;50714;49.208;5.364;2022-11-04T04:40:33;98272.41;;;11.20;85.13
48027;BME280;50714;49.208;5.364;2022-11-04T04:50:54;98267.00;;;11.20;84.99
48027;BME280;50714;49.208;5.364;2022-11-04T05:00:56;98255.97;;;11.22;85.20
48027;BME280;50714;49.208;5.364;2022-11-04T05:10:57;98243.88;;;11.24;84.86
48027;BME280;50714;49.208;5.364;2022-11-04T05:20:58;98238.72;;;11.23;84.87
48027;BME280;50714;49.208;5.364;2022-11-04T05:31:02;98233.09;;;11.24;84.99
48027;BME280;50714;49.208;5.364;2022-11-04T05:41:04;98230.03;;;11.21;84.37
48027;BME280;50714;49.208;5.364;2022-11-04T05:51:05;98224.88;;;11.19;84.44
48027;BME280;50714;49.208;5.364;2022-11-04T06:01:11;98208.66;;;11.19;84.75
48027;BME280;50714;49.208;5.364;2022-11-04T06:11:11;98218.88;;;11.17;84.53
48027;BME280;50714;49.208;5.364;2022-11-04T06:31:13;98216.19;;;11.17;83.93
48027;BME280;50714;49.208;5.364;2022-11-04T06:41:16;98223.00;;;11.20;83.86
48027;BME280;50714;49.208;5.364;2022-11-04T06:51:16;98233.56;;;11.21;84.20
48027;BME280;50714;49.208;5.364;2022-11-04T07:01:17;98242.84;;;11.14;84.29
48027;BME280;50714;49.208;5.364;2022-11-04T07:11:20;98246.72;;;11.18;84.59
48027;BME280;50714;49.208;5.364;2022-11-04T07:21:21;98256.47;;;11.07;84.12
48027;BME280;50714;49.208;5.364;2022-11-04T07:31:21;98256.25;;;11.09;84.45
48027;BME280;50714;49.208;5.364;2022-11-04T07:41:22;98278.63;;;11.21;84.42
48027;BME280;50714;49.208;5.364;2022-11-04T07:51:22;98294.03;;;11.32;84.56
48027;BME280;50714;49.208;5.364;2022-11-04T08:01:23;98301.03;;;11.45;84.32
48027;BME280;50714;49.208;5.364;2022-11-04T08:11:24;98314.53;;;11.45;85.30
48027;BME280;50714;49.208;5.364;2022-11-04T08:21:28;98319.72;;;11.35;85.97
48027;BME280;50714;49.208;5.364;2022-11-04T08:31:30;98323.97;;;11.31;86.13
48027;BME280;50714;49.208;5.364;2022-11-04T08:41:31;98335.91;;;11.35;86.87
48027;BME280;50714;49.208;5.364;2022-11-04T08:51:34;98348.13;;;11.49;87.21
48027;BME280;50714;49.208;5.364;2022-11-04T09:01:37;98338.97;;;11.50;86.44
48027;BME280;50714;49.208;5.364;2022-11-04T09:11:39;98356.00;;;11.39;86.04
48027;BME280;50714;49.208;5.364;2022-11-04T09:21:40;98364.59;;;11.24;86.06
48027;BME280;50714;49.208;5.364;2022-11-04T09:31:40;98372.09;;;11.10;86.05
48027;BME280;50714;49.208;5.364;2022-11-04T09:51:49;98379.03;;;11.06;85.53
48027;BME280;50714;49.208;5.364;2022-11-04T10:02:15;98409.56;;;11.18;85.68
48027;BME280;50714;49.208;5.364;2022-11-04T10:23:04;98415.81;;;11.54;84.34
48027;BME280;50714;49.208;5.364;2022-11-04T10:33:25;98421.41;;;11.87;83.60
48027;BME280;50714;49.208;5.364;2022-11-04T10:43:38;98419.22;;;12.24;83.50
48027;BME280;50714;49.208;5.364;2022-11-04T10:53:39;98428.47;;;13.02;83.85
48027;BME280;50714;49.208;5.364;2022-11-04T11:03:40;98438.59;;;13.95;81.83
48027;BME280;50714;49.208;5.364;2022-11-04T11:13:43;98447.03;;;14.16;79.53
48027;BME280;50714;49.208;5.364;2022-11-04T11:23:47;98447.28;;;14.36;78.91
48027;BME280;50714;49.208;5.364;2022-11-04T11:33:55;98450.75;;;14.10;78.34
48027;BME280;50714;49.208;5.364;2022-11-04T11:44:00;98469.44;;;14.28;79.30
48027;BME280;50714;49.208;5.364;2022-11-04T11:54:25;98469.59;;;14.60;76.53
48027;BME280;50714;49.208;5.364;2022-11-04T12:04:28;98479.41;;;14.66;77.45
48027;BME280;50714;49.208;5.364;2022-11-04T13:15:46;98520.44;;;15.18;75.26
48027;BME280;50714;49.208;5.364;2022-11-04T13:25:48;98536.00;;;15.23;74.86
48027;BME280;50714;49.208;5.364;2022-11-04T13:46:01;98562.91;;;14.54;73.53
48027;BME280;50714;49.208;5.364;2022-11-04T13:56:02;98563.19;;;14.19;73.65
48027;BME280;50714;49.208;5.364;2022-11-04T14:06:06;98572.59;;;13.94;74.01
48027;BME280;50714;49.208;5.364;2022-11-04T14:26:13;98613.94;;;13.68;73.62
48027;BME280;50714;49.208;5.364;2022-11-04T14:46:24;98656.22;;;13.12;72.97
48027;BME280;50714;49.208;5.364;2022-11-04T14:56:25;98670.41;;;12.91;74.20
48027;BME280;50714;49.208;5.364;2022-11-04T15:06:27;98696.31;;;12.87;75.55
48027;BME280;50714;49.208;5.364;2022-11-04T15:16:29;98705.72;;;12.84;76.23
48027;BME280;50714;49.208;5.364;2022-11-04T15:26:32;98724.56;;;12.79;76.67
48027;BME280;50714;49.208;5.364;2022-11-04T15:36:41;98750.59;;;12.69;76.97
48027;BME280;50714;49.208;5.364;2022-11-04T15:46:53;98766.00;;;12.56;77.60
48027;BME280;50714;49.208;5.364;2022-11-04T15:56:57;98778.59;;;12.51;77.88
48027;BME280;50714;49.208;5.364;2022-11-04T16:17:09;98801.03;;;12.28;78.38
48027;BME280;50714;49.208;5.364;2022-11-04T16:27:10;98817.19;;;12.16;78.89
48027;BME280;50714;49.208;5.364;2022-11-04T16:37:10;98829.97;;;12.09;79.14
48027;BME280;50714;49.208;5.364;2022-11-04T16:47:11;98846.56;;;12.01;79.74
48027;BME280;50714;49.208;5.364;2022-11-04T16:57:13;98868.72;;;11.91;80.01
48027;BME280;50714;49.208;5.364;2022-11-04T17:07:13;98898.31;;;11.86;80.74
48027;BME280;50714;49.208;5.364;2022-11-04T17:17:14;98902.38;;;11.77;81.13
48027;BME280;50714;49.208;5.364;2022-11-04T17:27:14;98923.00;;;11.72;81.22
48027;BME280;50714;49.208;5.364;2022-11-04T17:37:15;98947.81;;;11.62;81.66
48027;BME280;50714;49.208;5.364;2022-11-04T17:47:15;98961.31;;;11.44;81.87
48027;BME280;50714;49.208;5.364;2022-11-04T17:57:15;98963.44;;;11.35;82.43
48027;BME280;50714;49.208;5.364;2022-11-04T18:07:16;98984.56;;;11.20;82.27
48027;BME280;50714;49.208;5.364;2022-11-04T18:17:16;99003.38;;;11.08;83.18
48027;BME280;50714;49.208;5.364;2022-11-04T18:27:17;99008.06;;;11.19;83.03
48027;BME280;50714;49.208;5.364;2022-11-04T18:37:18;99027.78;;;11.20;83.30
48027;BME280;50714;49.208;5.364;2022-11-04T18:47:18;99046.59;;;11.08;83.07
48027;BME280;50714;49.208;5.364;2022-11-04T18:57:19;99060.50;;;11.05;83.89
48027;BME280;50714;49.208;5.364;2022-11-04T19:07:19;99060.31;;;11.07;83.96
48027;BME280;50714;49.208;5.364;2022-11-04T19:17:20;99068.69;;;10.92;83.43
48027;BME280;50714;49.208;5.364;2022-11-04T19:27:21;99097.31;;;10.93;83.80
48027;BME280;50714;49.208;5.364;2022-11-04T19:37:23;99108.75;;;10.95;83.81
48027;BME280;50714;49.208;5.364;2022-11-04T19:47:24;99138.31;;;10.83;84.29
48027;BME280;50714;49.208;5.364;2022-11-04T19:57:24;99147.44;;;10.82;83.34
48027;BME280;50714;49.208;5.364;2022-11-04T20:07:26;99174.66;;;10.74;83.62
48027;BME280;50714;49.208;5.364;2022-11-04T20:17:26;99186.97;;;10.57;83.51
48027;BME280;50714;49.208;5.364;2022-11-04T20:27:27;99211.25;;;10.44;84.46
48027;BME280;50714;49.208;5.364;2022-11-04T20:37:27;99230.75;;;10.26;83.66
48027;BME280;50714;49.208;5.364;2022-11-04T20:47:28;99235.28;;;10.06;83.88
48027;BME280;50714;49.208;5.364;2022-11-04T20:57:28;99232.19;;;10.02;84.96
48027;BME280;50714;49.208;5.364;2022-11-04T21:07:29;99244.63;;;10.03;85.90
48027;BME280;50714;49.208;5.364;2022-11-04T21:17:29;99272.84;;;10.07;85.44
48027;BME280;50714;49.208;5.364;2022-11-04T21:27:29;99282.16;;;10.05;85.28
48027;BME280;50714;49.208;5.364;2022-11-04T21:37:30;99309.19;;;10.24;85.91
48027;BME280;50714;49.208;5.364;2022-11-04T21:47:30;99333.28;;;10.39;85.05
48027;BME280;50714;49.208;5.364;2022-11-04T21:57:31;99337.22;;;10.30;84.61
48027;BME280;50714;49.208;5.364;2022-11-04T22:07:31;99357.34;;;10.34;84.65
48027;BME280;50714;49.208;5.364;2022-11-04T22:17:50;99358.38;;;10.40;85.12
48027;BME280;50714;49.208;5.364;2022-11-04T22:27:51;99369.59;;;10.37;85.00
48027;BME280;50714;49.208;5.364;2022-11-04T22:37:52;99370.59;;;10.29;84.17
48027;BME280;50714;49.208;5.364;2022-11-04T22:47:52;99371.84;;;10.27;84.20
48027;BME280;50714;49.208;5.364;2022-11-04T22:57:52;99378.69;;;10.22;84.01
48027;BME280;50714;49.208;5.364;2022-11-04T23:07:53;99397.66;;;10.01;83.48
48027;BME280;50714;49.208;5.364;2022-11-04T23:17:54;99403.50;;;10.05;83.89
48027;BME280;50714;49.208;5.364;2022-11-04T23:28:13;99406.16;;;9.91;83.09
48027;BME280;50714;49.208;5.364;2022-11-04T23:38:33;99408.94;;;9.70;82.88
48027;BME280;50714;49.208;5.364;2022-11-04T23:48:34;99422.97;;;9.59;83.28
48027;BME280;50714;49.208;5.364;2022-11-04T23:58:53;99426.84;;;9.50;82.97
